• Join FlightAware (Why Join?)
  • Login
  • US Flag 
12:22AM EDT


 

Airport Tracker/Info


-or-


 

Live Flight TrackerFlight Track Log ✈ GGN7283 ✈ 11-Aug-2013 ✈ KALB - CYYZ

Flight Track Log - Related Links

Times and Time Zones

All times are in EDT time to prevent confusion due to time zone crossing. See the GGN7283 flight status page for this flight to view local times or setup timezone preferences in your user account.

Time Position Orientation Groundspeed Altitude Reporting Facility
EDT Latitude Longitude Course Direction KTS MPH feet Rate Location/Type
05:33PM 42.7631 -73.8061 North 143 165 1,000  Level Boston Center
05:34PM 42.7986 -73.7983 North 151 174 2,000 1,440 Climbing Boston Center
05:35PM 42.8419 -73.8361 327° Northwest 169 194 3,700 1,680 Climbing Boston Center
05:36PM 42.8581 -73.8817 296° West 168 193 5,500 1,740 Climbing Boston Center
05:37PM 42.8553 -73.9411 266° West 145 167 7,200 1,800 Climbing Boston Center
05:38PM 42.8628 -73.9981 280° West 157 181 9,100 1,740 Climbing Boston Center
05:39PM 42.8725 -74.0522 284° West 157 181 10,700 1,560 Climbing Boston Center
05:40PM 42.8819 -74.1175 281° West 162 186 12,300 1,380 Climbing Boston Center
05:41PM 42.8875 -74.1686 278° West 162 186 13,600 1,440 Climbing Boston Center
05:42PM 42.8989 -74.2369 283° West 162 186 15,200 1,380 Climbing Boston Center
05:43PM 42.9064 -74.2883 281° West 162 186 16,400 1,260 Climbing Boston Center
05:44PM 42.9156 -74.3594 280° West 167 192 17,800 1,200 Climbing Boston Center
05:45PM 42.9231 -74.4164 280° West 167 192 18,800 1,020 Climbing Boston Center
05:46PM 42.9342 -74.4878 282° West 167 192 19,900 540 Climbing Boston Center
05:47PM 42.9414 -74.5617 278° West 179 206 20,000  Climbing Boston Center
05:48PM 42.9544 -74.6414 283° West 201 231 20,000  Level Boston Center
05:49PM 42.9653 -74.7186 281° West 208 239 20,000  Level Boston Center
05:50PM 42.9764 -74.7928 282° West 214 246 20,000  Level Boston Center
05:51PM 42.9853 -74.8583 281° West 195 224 20,000  Level Boston Center
05:52PM 42.9922 -74.9239 278° West 190 219 20,000  Level Boston Center
05:53PM 43.0017 -74.9756 284° West 180 207 20,000  Level Boston Center
05:54PM 43.0103 -75.0553 278° West 180 207 20,000  Level Boston Center
05:55PM 43.0192 -75.1211 280° West 180 207 20,000  Level Boston Center
05:56PM 43.0281 -75.1867 281° West 180 207 20,000  Level Boston Center
05:57PM 43.0367 -75.2525 280° West 180 207 20,000  Level Boston Center
05:58PM 43.0436 -75.3097 279° West 180 207 20,000  Level Boston Center
05:59PM 43.0561 -75.3925 282° West 180 207 20,000  Level Boston Center
06:00PM 43.0650 -75.4583 280° West 180 207 20,000  Level Boston Center
06:01PM 43.0736 -75.5242 280° West 180 207 20,000  Level Boston Center
06:02PM 43.0800 -75.5900 278° West 180 207 20,000  Level Boston Center
06:03PM 43.0908 -75.6558 283° West 180 207 20,000  Level Boston Center
06:04PM 43.0992 -75.7217 280° West 180 207 20,000  Level Boston Center
06:05PM 43.1078 -75.7878 280° West 180 207 20,000  Level Boston Center
06:06PM 43.1164 -75.8536 280° West 180 207 20,000  Level Boston Center
06:07PM 43.1247 -75.9194 280° West 180 207 20,000  Level Boston Center
06:09PM 43.1381 -76.0389 279° West 174 200 20,000  Level Cleveland Center
06:10PM 43.1467 -76.1039 280° West 179 206 20,000  Level Cleveland Center
06:11PM 43.1558 -76.1744 280° West 179 206 20,000  Level Cleveland Center
06:12PM 43.1581 -76.2369 273° West 179 206 20,000  Level Cleveland Center
06:13PM 43.1522 -76.3028 263° West 179 206 20,000  Level Cleveland Center
06:14PM 43.1464 -76.3714 263° West 179 206 20,000  Level Cleveland Center
06:15PM 43.1425 -76.4372 265° West 179 206 20,000  Level Cleveland Center
06:16PM 43.1364 -76.5003 262° West 179 206 20,000  Level Cleveland Center
06:17PM 43.1303 -76.5661 263° West 179 206 20,000  Level Cleveland Center
06:18PM 43.1264 -76.6347 266° West 179 206 20,000  Level Cleveland Center
06:19PM 43.1183 -76.7006 261° West 179 206 20,000  Level Cleveland Center
06:20PM 43.1119 -76.7606 262° West 179 206 20,000  Level Cleveland Center
06:21PM 43.1058 -76.8294 263° West 179 206 20,000  Level Cleveland Center
06:22PM 43.0997 -76.8953 263° West 179 206 20,000  Level Cleveland Center
06:23PM 43.0936 -76.9667 263° West 179 206 20,000  Level Cleveland Center
06:24PM 43.0872 -77.0322 262° West 179 206 20,000  Level Cleveland Center
06:25PM 43.0811 -77.1011 263° West 179 206 20,000  Level Cleveland Center
06:26PM 43.0747 -77.1694 263° West 179 206 20,000  Level Cleveland Center
06:27PM 43.0706 -77.2381 265° West 179 206 20,000  Level Cleveland Center
06:28PM 43.0619 -77.3067 260° West 179 206 20,000  Level Cleveland Center
06:29PM 43.0556 -77.3725 262° West 179 206 20,000  Level Cleveland Center
06:30PM 43.0511 -77.4408 265° West 179 206 20,000  Level Cleveland Center
06:31PM 43.0444 -77.5064 262° West 179 206 20,000  Level Cleveland Center
06:32PM 43.0381 -77.5750 263° West 179 206 20,000  Level Cleveland Center
06:33PM 43.0294 -77.6436 260° West 179 206 20,000  Level Cleveland Center
06:34PM 43.0247 -77.7119 265° West 179 206 20,000  Level Cleveland Center
06:35PM 43.0181 -77.7806 262° West 179 206 20,000  Level Cleveland Center
06:36PM 43.0114 -77.8489 262° West 179 206 20,000  Level Cleveland Center
06:37PM 43.0047 -77.9175 262° West 179 206 20,000  Level Cleveland Center
06:38PM 42.9981 -77.9858 262° West 179 206 20,000 -120 Level Cleveland Center
06:39PM 42.9975 -78.0539 269° West 179 206 19,800 -600 Descending Cleveland Center
06:40PM 43.0219 -78.1297 294° West 188 216 18,800 -1,020 Descending Cleveland Center
06:41PM 43.0425 -78.2111 289° West 212 244 17,800 -1,020 Descending Cleveland Center
06:42PM 43.0628 -78.2958 288° West 228 262 16,800 -1,080 Descending Cleveland Center
06:43PM 43.0833 -78.3831 288° West 233 268 15,700 -1,140 Descending Cleveland Center
06:44PM 43.1017 -78.4678 287° West 238 274 14,600 -900 Descending Cleveland Center
06:45PM 43.1197 -78.5494 287° West 238 274 14,000 -180 Descending Cleveland Center
06:47PM 43.1500 -78.7000 285° West 200 230 14,000  Level Toronto Center
06:48PM 43.1667 -78.7833 285° West 210 242 14,000  Level Toronto Center
06:49PM 43.1833 -78.8500 289° West 220 253 14,000 -60 Level Toronto Center
06:50PM 43.2000 -78.9500 283° West 220 253 13,900 -840 Descending Toronto Center
06:51PM 43.2333 -79.0333 299° West 230 265 12,400 -1,680 Descending Toronto Center
06:52PM 43.2500 -79.1000 289° West 250 288 10,600 -1,740 Descending Toronto Center
06:53PM 43.2667 -79.2167 281° West 250 288 9,000 -1,260 Descending Toronto Center
06:54PM 43.2833 -79.2833 289° West 230 265 8,100 -540 Descending Toronto Center
06:55PM 43.3167 -79.3500 305° West 210 242 8,000 -60 Descending Toronto Center
06:56PM 43.3667 -79.3833 334° Northwest 200 230 8,000  Level Toronto Center
06:57PM 43.4167 -79.4333 324° Northwest 200 230 8,000  Level Toronto Center
06:58PM 43.4667 -79.4500 346° North 210 242 8,000  Level Toronto Center
06:59PM 43.5333 -79.4500 360° North 230 265 8,000 -780 Level Toronto Center
07:00PM 43.6000 -79.4500 360° North 240 276 6,500 -1,440 Descending Toronto Center
07:01PM 43.6667 -79.4333 10° North 250 288 5,200 -1,260 Descending Toronto Center
07:02PM 43.7000 -79.3333 65° Northeast 250 288 4,000 -600 Descending Toronto Center
07:03PM 43.7500 -79.3333 360° North 220 253 4,000 -120 Level Toronto Center
07:04PM 43.7833 -79.3833 313° West 200 230 3,800 -540 Descending Toronto Center
07:05PM 43.7667 -79.4333 245° Southwest 200 230 3,000 -720 Descending Toronto Center
07:06PM 43.7333 -79.5000 235° Southwest 170 196 2,400 -660 Descending Toronto Center
07:07PM 43.7000 -79.5167 200° South 150 173 1,700 -720 Descending Toronto Center
07:08PM 43.6833 -79.5667 245° Southwest 130 150 1,000 -600 Descending Toronto Center
07:09PM 43.6667 -79.5833 216° Southwest 100 115 600 -420 Descending Toronto Center